Terminal Aerodrome Forecast
Issued by NWS

Home | Current Version | Previous Version | Text Only | Print | Product List | Glossary On
Versions: 1 2 3 4 5 6 7 8 9 10 11 12 13 14 15 16 17 18 19 20 21 22 23 24 25 26 27
000
FTUS44 KFWD 020300 AAA
TAFFTW
TAF AMD
KFTW 020302Z 0203/0224 16014KT P6SM SCT250
     FM021100 18011KT P6SM OVC015
     FM021600 19019KT P6SM SCT030
     FM022200 22018KT P6SM VCTS BKN050CB=

USA.gov is the U.S. government's official web portal to all federal, state and local government web resources and services.